Time;durP1;ratioP1;P1;durP2;ratioP2;P2;SDS_P1;SDS_P2;PMS_P1;PMS_P2;Temp;Humidity;BMP_temperature;BMP_pressure;BME280_temperature;BME280_humidity;BME280_pressure;Samples;Min_cycle;Max_cycle;Signal;HPM_P1;HPM_P2
2022/07/23 00:01:31;;;;;;;16.95;7.22;;;;;;;24.91;43.75;95454.56;5087757;28;20103;-85
2022/07/23 00:03:57;;;;;;;16.83;7.30;;;;;;;24.94;43.75;95450.38;5105701;28;20496;-85
2022/07/23 00:06:23;;;;;;;12.23;7.10;;;;;;;25.41;43.81;95530.72;5087757;28;20043;-85
2022/07/23 00:08:48;;;;;;;17.48;7.53;;;;;;;25.08;43.73;95482.41;5086553;28;20028;-85
2022/07/23 00:11:14;;;;;;;16.83;6.95;;;;;;;25.19;44.06;95514.03;5103836;28;20042;-85
2022/07/23 00:13:39;;;;;;;14.80;7.03;;;;;;;24.72;43.91;95451.81;5084981;28;20082;-85
2022/07/23 00:16:05;;;;;;;16.08;7.50;;;;;;;25.27;44.07;95515.72;5084499;28;20126;-85
2022/07/23 00:18:31;;;;;;;23.48;7.55;;;;;;;24.42;44.50;95431.81;5102716;28;20035;-85
2022/07/23 00:20:57;;;;;;;18.48;7.60;;;;;;;24.84;45.06;95505.94;5102823;28;20243;-85
2022/07/23 00:23:22;;;;;;;13.20;7.13;;;;;;;24.87;44.90;95504.44;5082940;28;20046;-85
2022/07/23 00:25:47;;;;;;;20.38;7.72;;;;;;;24.74;45.15;95503.78;5082607;28;20050;-85
2022/07/23 00:28:13;;;;;;;22.67;9.02;;;;;;;23.71;45.58;95387.69;5072290;28;20032;-85
2022/07/23 00:30:39;;;;;;;21.63;8.93;;;;;;;24.66;45.71;95542.72;5079606;28;20379;-85
2022/07/23 00:33:06;;;;;;;18.67;9.07;;;;;;;24.43;45.79;95501.16;5100680;28;20035;-84
2022/07/23 00:35:34;;;;;;;16.65;8.65;;;;;;;24.39;45.22;95470.50;5082899;28;20023;-85
2022/07/23 00:38:00;;;;;;;20.98;9.88;;;;;;;24.36;45.00;95476.63;5083251;28;20055;-85
2022/07/23 00:40:26;;;;;;;13.90;9.85;;;;;;;23.58;45.06;95394.31;5083020;28;20531;-86
2022/07/23 00:42:52;;;;;;;14.60;8.75;;;;;;;24.56;45.18;95540.59;5101840;28;20035;-85
2022/07/23 00:45:19;;;;;;;21.20;10.10;;;;;;;24.73;44.95;95534.75;5101970;28;20053;-85
2022/07/23 00:47:44;;;;;;;14.95;9.00;;;;;;;24.74;44.50;95540.97;5083249;28;20077;-85
2022/07/23 00:50:10;;;;;;;16.48;9.15;;;;;;;24.58;44.90;95544.50;5084189;28;20039;-85
2022/07/23 00:52:37;;;;;;;17.40;8.40;;;;;;;24.76;43.83;95544.91;5087847;28;20035;-85
2022/07/23 00:55:04;;;;;;;14.73;7.97;;;;;;;24.48;43.28;95501.69;5087836;28;20028;-85
2022/07/23 00:57:29;;;;;;;17.00;7.55;;;;;;;23.61;43.11;95361.13;5085502;28;20124;-85
2022/07/23 00:59:56;;;;;;;12.48;7.07;;;;;;;24.11;42.39;95438.09;5084148;28;20047;-85
2022/07/23 01:02:21;;;;;;;15.15;6.53;;;;;;;24.16;42.33;95462.22;5083826;28;20065;-85
2022/07/23 01:04:47;;;;;;;21.45;7.00;;;;;;;24.18;42.23;95454.53;5102682;28;20070;-85
2022/07/23 01:07:12;;;;;;;15.77;6.93;;;;;;;24.81;42.18;95530.25;5083740;28;20055;-85
2022/07/23 01:09:38;;;;;;;11.10;7.07;;;;;;;24.81;41.82;95532.97;5082942;28;20483;-86
2022/07/23 01:12:05;;;;;;;14.95;6.25;;;;;;;24.82;42.10;95548.13;5083133;28;20039;-85
2022/07/23 01:14:30;;;;;;;10.75;6.85;;;;;;;23.86;42.38;95407.75;5083816;28;20070;-85
2022/07/23 01:16:56;;;;;;;9.85;6.72;;;;;;;24.82;42.13;95532.63;5101512;28;20087;-86
2022/07/23 01:19:21;;;;;;;11.30;7.22;;;;;;;24.60;41.99;95495.34;5081232;28;20041;-86
2022/07/23 01:21:49;;;;;;;14.18;7.10;;;;;;;24.88;42.23;95533.91;5080843;28;20083;-86
2022/07/23 01:24:15;;;;;;;20.58;9.57;;;;;;;24.84;42.01;95524.13;5081009;28;20036;-86
2022/07/23 01:26:43;;;;;;;18.02;9.10;;;;;;;24.81;42.33;95532.97;5100319;28;20062;-86
2022/07/23 01:29:09;;;;;;;20.17;9.10;;;;;;;24.73;42.43;95523.91;5081754;28;20492;-86
2022/07/23 01:31:35;;;;;;;16.58;8.63;;;;;;;24.54;42.62;95508.41;5081941;28;20043;-86
2022/07/23 01:34:00;;;;;;;15.18;8.18;;;;;;;24.31;42.64;95453.28;5099100;28;20374;-86
2022/07/23 01:36:26;;;;;;;10.23;7.38;;;;;;;24.21;42.65;95440.28;5081090;28;20510;-86
2022/07/23 01:38:53;;;;;;;14.50;8.07;;;;;;;24.59;42.69;95499.97;5080364;28;20044;-86
2022/07/23 01:41:19;;;;;;;14.90;7.10;;;;;;;24.00;43.67;95478.50;5097934;28;20238;-86
2022/07/23 01:43:44;;;;;;;12.90;7.75;;;;;;;24.50;43.37;95518.38;5099464;28;20110;-86
2022/07/23 01:46:10;;;;;;;16.40;6.70;;;;;;;24.48;43.38;95526.09;5091712;28;20039;-86
2022/07/23 01:48:35;;;;;;;16.35;7.28;;;;;;;23.23;43.08;95325.78;5097995;28;20027;-86
2022/07/23 01:51:01;;;;;;;15.18;7.05;;;;;;;24.60;43.16;95530.59;5100012;28;20381;-86
2022/07/23 01:53:26;;;;;;;21.60;7.93;;;;;;;24.55;43.60;95520.81;5100246;28;20042;-86
2022/07/23 01:55:52;;;;;;;19.65;7.90;;;;;;;24.08;43.51;95446.94;5099643;28;20088;-86
2022/07/23 01:58:17;;;;;;;16.17;7.07;;;;;;;24.06;43.56;95435.66;5098496;28;20035;-86
2022/07/23 02:00:43;;;;;;;16.42;6.63;;;;;;;24.16;43.55;95451.38;5100057;28;20035;-87
2022/07/23 02:03:08;;;;;;;16.20;7.30;;;;;;;24.08;43.77;95447.72;5098558;28;20035;-86
2022/07/23 02:05:34;;;;;;;13.88;6.97;;;;;;;24.17;43.79;95461.06;5098403;28;20028;-86
2022/07/23 02:08:00;;;;;;;12.23;6.68;;;;;;;24.32;43.84;95492.03;5100736;28;20567;-86
2022/07/23 02:10:26;;;;;;;13.93;6.95;;;;;;;24.12;44.09;95485.72;5100085;28;20074;-86
2022/07/23 02:12:52;;;;;;;14.40;6.95;;;;;;;23.70;44.08;95413.19;5099991;28;20032;-86
2022/07/23 02:15:17;;;;;;;15.50;7.45;;;;;;;23.52;43.97;95393.00;5097969;28;20047;-86
2022/07/23 02:17:43;;;;;;;14.70;7.55;;;;;;;24.38;44.43;95537.47;5098234;28;20032;-86
2022/07/23 02:20:09;;;;;;;21.15;7.05;;;;;;;24.05;44.77;95494.47;5098303;28;20342;-86
2022/07/23 02:22:35;;;;;;;12.00;7.10;;;;;;;23.58;44.96;95450.38;5098911;28;20028;-86
2022/07/23 02:25:02;;;;;;;12.30;7.28;;;;;;;23.96;44.96;95499.28;5098517;28;20437;-86
2022/07/23 02:27:28;;;;;;;23.73;7.72;;;;;;;23.64;45.14;95449.78;5085610;28;20139;-86
2022/07/23 02:29:53;;;;;;;10.38;6.25;;;;;;;23.80;44.81;95474.91;5080206;28;20558;-86
2022/07/23 02:32:21;;;;;;;12.50;6.10;;;;;;;24.01;45.36;95545.09;5080838;28;20096;-86
2022/07/23 02:34:47;;;;;;;10.77;6.50;;;;;;;24.13;44.90;95527.94;5081184;28;20027;-86
2022/07/23 02:37:13;;;;;;;15.27;6.60;;;;;;;23.82;44.76;95477.28;5081708;28;20155;-86
2022/07/23 02:39:38;;;;;;;16.92;7.25;;;;;;;23.56;45.07;95466.97;5075821;28;20589;-87
2022/07/23 02:42:04;;;;;;;14.98;7.07;;;;;;;24.01;45.16;95538.88;5060760;28;20150;-87
2022/07/23 02:44:29;;;;;;;13.10;7.25;;;;;;;22.49;45.01;95313.84;5084929;28;20105;-86
2022/07/23 02:46:55;;;;;;;18.02;7.88;;;;;;;23.32;45.04;95448.16;5103270;28;20053;-86
2022/07/23 02:49:20;;;;;;;16.17;8.02;;;;;;;22.67;45.53;95380.72;5076150;28;20028;-86
2022/07/23 02:51:45;;;;;;;26.15;8.45;;;;;;;23.78;45.54;95527.88;5079141;28;20035;-86
2022/07/23 02:54:11;;;;;;;20.25;8.15;;;;;;;21.68;45.90;95220.50;5072238;28;20495;-86
2022/07/23 02:56:36;;;;;;;15.35;9.02;;;;;;;23.26;45.77;95453.06;5064987;28;20521;-86
2022/07/23 02:59:02;;;;;;;17.15;8.85;;;;;;;23.42;45.96;95482.84;5084110;28;20509;-87
2022/07/23 03:01:27;;;;;;;20.20;9.85;;;;;;;23.16;45.79;95447.34;5084330;28;20796;-86
2022/07/23 03:03:53;;;;;;;20.33;10.77;;;;;;;23.12;46.32;95459.97;5078965;28;20032;-86
2022/07/23 03:06:18;;;;;;;19.75;10.18;;;;;;;23.07;46.15;95445.59;5085151;28;20032;-87
2022/07/23 03:08:44;;;;;;;18.33;11.07;;;;;;;23.72;46.16;95543.59;5080796;28;20032;-86
2022/07/23 03:11:10;;;;;;;20.83;10.15;;;;;;;22.96;47.21;95536.47;5083305;28;20028;-86
2022/07/23 03:13:37;;;;;;;24.65;9.95;;;;;;;22.94;47.09;95511.69;5059470;28;20051;-86
2022/07/23 03:16:03;;;;;;;21.67;9.75;;;;;;;22.70;46.96;95452.25;5062444;28;20040;-86
2022/07/23 03:18:29;;;;;;;22.02;10.13;;;;;;;23.04;46.69;95488.75;5063819;28;20036;-86
2022/07/23 03:20:54;;;;;;;20.67;9.85;;;;;;;23.35;46.72;95544.88;5081999;28;20043;-86
2022/07/23 03:23:20;;;;;;;29.63;10.20;;;;;;;23.39;47.05;95572.84;5102962;28;20474;-86
2022/07/23 03:25:48;;;;;;;29.00;10.57;;;;;;;22.91;46.94;95495.34;5102464;28;20110;-86
2022/07/23 03:28:15;;;;;;;25.55;11.02;;;;;;;22.94;46.93;95494.69;5077250;28;20032;-86
2022/07/23 03:30:41;;;;;;;27.90;12.45;;;;;;;23.17;47.71;95578.78;5067595;28;20035;-85
2022/07/23 03:33:07;;;;;;;26.90;11.98;;;;;;;22.95;47.85;95561.97;5084102;28;20107;-86
2022/07/23 03:35:32;;;;;;;28.42;12.38;;;;;;;22.62;47.59;95485.63;5082587;28;20035;-86
2022/07/23 03:37:58;;;;;;;28.02;13.00;;;;;;;22.83;47.18;95515.22;5083034;28;20460;-86
2022/07/23 03:40:23;;;;;;;23.50;11.90;;;;;;;23.16;47.26;95550.16;5083237;28;20510;-86
2022/07/23 03:42:49;;;;;;;22.10;11.23;;;;;;;22.86;46.97;95498.31;5082945;28;20042;-86
2022/07/23 03:45:14;;;;;;;26.60;11.48;;;;;;;23.17;47.27;95565.25;5102698;28;20112;-86
2022/07/23 03:47:40;;;;;;;23.13;11.00;;;;;;;21.22;47.85;95300.06;5103412;28;20466;-87
2022/07/23 03:50:06;;;;;;;26.20;10.02;;;;;;;22.80;47.27;95532.94;5103096;28;20059;-86
2022/07/23 03:52:32;;;;;;;20.45;10.80;;;;;;;22.89;46.95;95546.28;5102178;28;20108;-86
2022/07/23 03:54:57;;;;;;;24.83;12.68;;;;;;;22.94;46.97;95541.44;5084040;28;20048;-86
2022/07/23 03:57:22;;;;;;;25.15;10.05;;;;;;;23.12;46.85;95566.28;5101687;28;20485;-86
2022/07/23 03:59:48;;;;;;;16.40;9.18;;;;;;;22.47;46.42;95452.00;5064356;28;20044;-86
2022/07/23 04:02:13;;;;;;;23.95;10.20;;;;;;;23.19;46.66;95587.34;5060459;28;20073;-86
2022/07/23 04:04:39;;;;;;;24.75;10.05;;;;;;;21.39;46.67;95272.84;5077728;28;20442;-86
2022/07/23 04:07:04;;;;;;;21.88;10.43;;;;;;;23.10;46.72;95517.16;5080416;28;20036;-86
2022/07/23 04:09:30;;;;;;;23.92;10.15;;;;;;;23.02;46.69;95507.28;5080116;28;20028;-86
2022/07/23 04:11:55;;;;;;;21.35;10.23;;;;;;;23.57;46.93;95586.88;5063278;28;20425;-86
2022/07/23 04:14:20;;;;;;;21.27;9.98;;;;;;;23.69;46.40;95586.81;5080035;28;20066;-86
2022/07/23 04:16:46;;;;;;;18.10;9.48;;;;;;;22.41;45.64;95368.81;5063420;28;20036;-86
2022/07/23 04:19:11;;;;;;;20.27;9.35;;;;;;;22.78;45.83;95429.72;5079145;28;20160;-86
2022/07/23 04:21:37;;;;;;;16.05;9.52;;;;;;;23.91;45.77;95586.22;5079895;28;20121;-86
2022/07/23 04:24:03;;;;;;;18.13;9.85;;;;;;;23.70;45.69;95539.66;5082264;28;20043;-86
2022/07/23 04:26:28;;;;;;;19.55;9.80;;;;;;;23.78;45.69;95572.00;5079899;28;20121;-86
2022/07/23 04:28:53;;;;;;;27.38;10.38;;;;;;;23.31;46.33;95558.31;5063512;28;20475;-86
2022/07/23 04:31:19;;;;;;;24.75;9.65;;;;;;;23.13;46.02;95497.50;5062841;28;20036;-86
2022/07/23 04:33:44;;;;;;;21.63;9.23;;;;;;;23.60;45.49;95550.97;5062422;28;20038;-86
2022/07/23 04:36:10;;;;;;;19.40;9.52;;;;;;;23.44;45.81;95521.16;5054599;28;20036;-86
2022/07/23 04:38:35;;;;;;;18.23;10.35;;;;;;;23.31;46.13;95485.25;5072894;28;20047;-85
2022/07/23 04:41:01;;;;;;;22.23;9.45;;;;;;;23.61;45.36;95525.50;5082568;28;20135;-85
2022/07/23 04:43:26;;;;;;;19.23;9.75;;;;;;;22.85;45.07;95404.78;5101480;28;20099;-85
2022/07/23 04:45:52;;;;;;;20.65;9.85;;;;;;;23.81;45.43;95557.72;5063196;28;20043;-85
2022/07/23 04:48:17;;;;;;;18.95;9.80;;;;;;;23.93;45.05;95562.28;5059705;28;20032;-85
2022/07/23 04:50:43;;;;;;;21.48;8.60;;;;;;;24.16;44.79;95601.19;5059502;28;20036;-86
2022/07/23 04:53:08;;;;;;;13.95;8.40;;;;;;;21.10;44.94;95129.03;5081165;28;20051;-85
2022/07/23 04:55:34;;;;;;;21.30;9.45;;;;;;;21.95;44.10;95271.03;5063176;28;20112;-86
2022/07/23 04:57:59;;;;;;;22.23;9.40;;;;;;;24.22;44.19;95593.63;5061611;28;20040;-85
2022/07/23 05:00:25;;;;;;;21.52;9.20;;;;;;;22.42;44.39;95316.34;5056223;28;20044;-85
2022/07/23 05:02:50;;;;;;;22.48;10.05;;;;;;;23.69;44.50;95500.97;5060037;28;20083;-86
2022/07/23 05:05:15;;;;;;;24.05;10.27;;;;;;;23.76;44.80;95522.78;5060501;28;20076;-85
2022/07/23 05:07:41;;;;;;;22.85;9.68;;;;;;;23.04;44.26;95403.00;5059743;28;20096;-86
2022/07/23 05:10:07;;;;;;;20.25;10.63;;;;;;;23.95;43.96;95557.31;5082174;28;20406;-85
2022/07/23 05:12:32;;;;;;;20.38;9.77;;;;;;;24.29;44.01;95611.97;5062877;28;20044;-86
2022/07/23 05:14:58;;;;;;;19.50;10.30;;;;;;;24.01;43.81;95549.72;5064857;28;20604;-85
2022/07/23 05:17:23;;;;;;;24.65;9.65;;;;;;;23.99;43.53;95528.38;5060128;28;20051;-85
2022/07/23 05:19:49;;;;;;;23.60;9.60;;;;;;;24.52;43.88;95607.50;5081317;28;20419;-86
2022/07/23 05:22:14;;;;;;;16.75;9.57;;;;;;;24.12;43.96;95548.81;5063074;28;20046;-86
2022/07/23 05:24:39;;;;;;;18.17;9.63;;;;;;;23.47;43.47;95425.72;5079780;28;20043;-85
2022/07/23 05:27:05;;;;;;;17.20;9.45;;;;;;;24.40;43.50;95573.16;5082767;28;20065;-85
2022/07/23 05:29:30;;;;;;;23.30;9.48;;;;;;;24.04;43.88;95502.94;5061568;28;20039;-85
2022/07/23 05:31:56;;;;;;;15.65;8.93;;;;;;;24.34;44.04;95544.72;5060219;28;20035;-86
2022/07/23 05:34:21;;;;;;;17.50;8.80;;;;;;;24.04;44.06;95484.75;5051501;28;20105;-86
2022/07/23 05:36:48;;;;;;;15.50;8.50;;;;;;;24.57;43.47;95577.38;5077270;28;20072;-85
2022/07/23 05:39:14;;;;;;;16.73;8.45;;;;;;;24.74;43.62;95609.56;5081654;28;20063;-86
2022/07/23 05:41:39;;;;;;;19.00;8.85;;;;;;;24.47;43.21;95570.59;5081808;28;20035;-85
2022/07/23 05:44:05;;;;;;;19.60;8.88;;;;;;;24.66;43.81;95594.25;5082739;28;20890;-86
2022/07/23 05:46:30;;;;;;;22.08;8.48;;;;;;;24.37;42.96;95543.25;5101516;28;20039;-85
2022/07/23 05:48:56;;;;;;;13.13;7.60;;;;;;;24.19;42.56;95510.25;5083052;28;20039;-85
2022/07/23 05:51:22;;;;;;;21.40;9.00;;;;;;;24.81;42.40;95611.63;5082499;28;20135;-85
2022/07/23 05:53:48;;;;;;;23.58;9.73;;;;;;;24.61;42.18;95560.06;5101467;28;20048;-85
2022/07/23 05:56:14;;;;;;;13.40;7.65;;;;;;;24.31;41.93;95525.69;5082709;28;20508;-85
2022/07/23 05:58:39;;;;;;;16.02;8.77;;;;;;;24.69;41.93;95580.00;5082162;28;20039;-85
2022/07/23 06:01:05;;;;;;;20.10;8.98;;;;;;;24.71;41.92;95577.72;5082307;28;20481;-85
2022/07/23 06:03:30;;;;;;;21.90;8.82;;;;;;;24.93;42.24;95606.94;5081742;28;20135;-85
2022/07/23 06:05:55;;;;;;;20.45;8.45;;;;;;;24.19;41.84;95453.38;5098703;28;20533;-85
2022/07/23 06:08:21;;;;;;;19.90;8.93;;;;;;;24.55;42.28;95518.13;5076163;28;20032;-85
2022/07/23 06:10:46;;;;;;;22.98;8.73;;;;;;;24.87;42.38;95532.34;5082753;28;20046;-86
2022/07/23 06:13:12;;;;;;;22.20;9.02;;;;;;;24.99;42.88;95547.75;5100853;28;20542;-85
2022/07/23 06:15:37;;;;;;;21.20;8.40;;;;;;;25.29;42.64;95583.25;5082548;28;20840;-85
2022/07/23 06:18:03;;;;;;;16.08;7.88;;;;;;;24.79;42.22;95503.53;5081556;28;20035;-85
2022/07/23 06:20:28;;;;;;;18.90;8.10;;;;;;;25.51;41.83;95609.66;5083573;28;20051;-86
2022/07/23 06:22:54;;;;;;;12.50;8.63;;;;;;;24.87;42.24;95509.88;5086588;28;20039;-85
2022/07/23 06:25:20;;;;;;;16.55;8.10;;;;;;;25.44;41.98;95576.94;5087237;28;20041;-85
2022/07/23 06:27:46;;;;;;;22.55;8.65;;;;;;;24.73;42.40;95452.59;5086124;28;20057;-86
2022/07/23 06:30:12;;;;;;;20.48;8.50;;;;;;;24.61;42.06;95446.19;5078516;28;20035;-86
2022/07/23 06:32:38;;;;;;;19.50;9.15;;;;;;;25.19;41.28;95529.50;5086294;28;20043;-86
2022/07/23 06:35:04;;;;;;;12.82;7.20;;;;;;;25.50;41.84;95563.84;5085397;28;20095;-85
2022/07/23 06:37:29;;;;;;;23.15;8.73;;;;;;;25.43;41.58;95542.00;5099431;28;20478;-85
2022/07/23 06:39:55;;;;;;;22.73;8.85;;;;;;;25.61;41.70;95565.66;5065581;28;20043;-86
2022/07/23 06:42:21;;;;;;;15.60;7.57;;;;;;;25.47;41.31;95553.72;5065447;28;20474;-85
2022/07/23 06:44:46;;;;;;;12.10;7.47;;;;;;;25.45;41.27;95537.00;5064543;28;20036;-86
2022/07/23 06:47:12;;;;;;;16.40;8.20;;;;;;;25.66;40.84;95559.94;5084028;28;20048;-86
2022/07/23 06:49:37;;;;;;;15.30;7.70;;;;;;;25.53;40.21;95530.56;5084086;28;20109;-86
2022/07/23 06:52:03;;;;;;;20.13;7.90;;;;;;;25.41;40.11;95520.63;5065094;28;20122;-86
2022/07/23 06:54:28;;;;;;;20.35;8.50;;;;;;;25.73;40.06;95546.47;5065633;28;20050;-86
2022/07/23 06:56:54;;;;;;;21.48;8.00;;;;;;;25.74;39.82;95541.84;5065652;28;20490;-86
2022/07/23 06:59:19;;;;;;;15.15;8.00;;;;;;;25.99;39.30;95567.50;5065647;28;20157;-86
2022/07/23 07:01:45;;;;;;;23.58;8.05;;;;;;;25.49;40.00;95480.81;5066393;28;20096;-86
2022/07/23 07:04:10;;;;;;;15.55;7.50;;;;;;;25.90;39.96;95520.78;5065453;28;20479;-86
2022/07/23 07:06:36;;;;;;;15.70;7.22;;;;;;;26.18;39.42;95560.41;5065566;28;20125;-86
2022/07/23 07:09:01;;;;;;;22.15;7.80;;;;;;;25.89;39.41;95507.53;5066103;28;20082;-86
2022/07/23 07:11:26;;;;;;;16.17;7.30;;;;;;;26.34;38.94;95566.53;5066193;28;20554;-86
2022/07/23 07:13:52;;;;;;;12.27;7.95;;;;;;;26.60;38.85;95576.66;5065637;28;20869;-87
2022/07/23 07:16:18;;;;;;;27.00;8.95;;;;;;;26.26;38.65;95527.59;5065715;28;20579;-85
2022/07/23 07:18:43;;;;;;;24.08;7.95;;;;;;;26.42;38.60;95587.25;5064760;28;20032;-86
2022/07/23 07:21:09;;;;;;;28.02;9.00;;;;;;;26.36;38.68;95581.34;5066071;28;20040;-86
2022/07/23 07:23:34;;;;;;;18.83;9.02;;;;;;;25.48;39.17;95482.75;5083189;28;20047;-86
2022/07/23 07:25:59;;;;;;;20.30;8.88;;;;;;;26.16;39.14;95551.88;5065460;28;20050;-86
2022/07/23 07:28:25;;;;;;;15.05;7.80;;;;;;;25.56;39.44;95440.22;5065354;28;20463;-86
2022/07/23 07:30:50;;;;;;;16.05;8.10;;;;;;;26.59;39.02;95570.44;5065500;28;20442;-86
2022/07/23 07:33:16;;;;;;;18.05;8.98;;;;;;;26.24;38.78;95488.31;5066255;28;20430;-86
2022/07/23 07:35:41;;;;;;;19.42;8.70;;;;;;;26.87;39.24;95567.31;5084018;28;20040;-86
2022/07/23 07:38:07;;;;;;;21.40;9.77;;;;;;;26.89;39.26;95559.59;5064677;28;20047;-85
2022/07/23 07:40:32;;;;;;;21.27;9.50;;;;;;;26.36;38.49;95475.31;5065320;28;20044;-85
2022/07/23 07:42:58;;;;;;;16.42;9.48;;;;;;;26.46;38.69;95518.19;5064953;28;20047;-85
2022/07/23 07:45:24;;;;;;;18.83;8.88;;;;;;;25.96;37.82;95426.94;5064733;28;20039;-85
2022/07/23 07:47:52;;;;;;;19.98;9.00;;;;;;;27.05;37.94;95564.88;5063939;28;20502;-86
2022/07/23 07:50:18;;;;;;;17.35;8.30;;;;;;;26.48;38.30;95482.44;5076846;28;20119;-86
2022/07/23 07:52:43;;;;;;;21.65;8.35;;;;;;;27.02;37.85;95549.28;5079501;28;20106;-85
2022/07/23 07:55:10;;;;;;;16.85;8.48;;;;;;;26.55;37.72;95460.78;5082563;28;20063;-85
2022/07/23 07:57:36;;;;;;;17.00;8.55;;;;;;;27.10;37.23;95510.09;5063897;28;20480;-85
2022/07/23 08:00:03;;;;;;;25.17;8.35;;;;;;;27.44;36.83;95547.06;5063603;28;20040;-85
2022/07/23 08:02:29;;;;;;;21.08;7.72;;;;;;;27.30;37.17;95513.47;5063355;28;20044;-85
2022/07/23 08:04:57;;;;;;;18.95;7.75;;;;;;;27.12;36.79;95505.88;5062743;28;20991;-85
2022/07/23 08:07:22;;;;;;;19.67;8.35;;;;;;;27.16;36.29;95527.66;5064325;28;20072;-86
2022/07/23 08:09:47;;;;;;;17.73;8.00;;;;;;;27.46;36.02;95520.25;5064221;28;20468;-85
2022/07/23 08:12:13;;;;;;;22.60;7.93;;;;;;;27.45;35.58;95529.59;5082494;28;20518;-85
2022/07/23 08:14:38;;;;;;;25.70;8.13;;;;;;;27.26;36.43;95497.84;5074648;28;20051;-86
2022/07/23 08:17:04;;;;;;;14.60;8.13;;;;;;;27.43;35.76;95504.66;5081643;28;20553;-85
2022/07/23 08:19:29;;;;;;;16.30;8.15;;;;;;;27.35;35.90;95475.78;5063314;28;20036;-86
2022/07/23 08:21:55;;;;;;;23.63;8.60;;;;;;;27.32;35.96;95457.44;5063533;28;20046;-85
2022/07/23 08:24:20;;;;;;;24.98;9.00;;;;;;;27.91;35.35;95548.38;5081666;28;20181;-85
2022/07/23 08:26:46;;;;;;;19.83;8.95;;;;;;;27.63;34.84;95495.16;5082522;28;20060;-85
2022/07/23 08:29:11;;;;;;;25.38;9.80;;;;;;;27.65;35.35;95503.72;5063752;28;20176;-86
2022/07/23 08:31:36;;;;;;;22.33;9.52;;;;;;;27.83;35.57;95536.63;5080833;28;20036;-85
2022/07/23 08:34:02;;;;;;;19.17;8.30;;;;;;;27.52;35.10;95490.72;5063466;28;20043;-85
2022/07/23 08:36:31;;;;;;;17.92;7.97;;;;;;;27.35;35.54;95450.47;5082099;28;20043;-85
2022/07/23 08:38:58;;;;;;;30.48;8.55;;;;;;;27.53;35.05;95467.81;5063634;28;20052;-85
2022/07/23 08:41:24;;;;;;;19.45;7.95;;;;;;;27.57;35.06;95442.16;5062652;28;20505;-87
2022/07/23 08:43:50;;;;;;;21.85;8.43;;;;;;;28.28;34.54;95534.69;5062125;28;20123;-85
2022/07/23 08:46:18;;;;;;;18.27;7.75;;;;;;;28.13;34.55;95509.22;5048137;28;20391;-85
2022/07/23 08:48:48;;;;;;;19.42;8.50;;;;;;;28.28;34.35;95526.50;5063375;28;20430;-85
2022/07/23 08:51:14;;;;;;;21.95;8.18;;;;;;;28.17;34.45;95506.53;5063432;28;20421;-85
2022/07/23 08:53:41;;;;;;;19.70;8.40;;;;;;;27.62;34.31;95386.53;5062767;28;20475;-85
2022/07/23 08:56:08;;;;;;;19.60;8.27;;;;;;;28.14;34.06;95464.44;5080567;28;20141;-85
2022/07/23 08:58:34;;;;;;;23.35;8.65;;;;;;;27.65;34.67;95358.56;5061651;28;20052;-86
2022/07/23 09:01:01;;;;;;;20.13;8.35;;;;;;;28.75;34.14;95515.53;5063684;28;20038;-86
2022/07/23 09:03:32;;;;;;;15.48;8.55;;;;;;;28.15;34.33;95405.22;5081818;28;20317;-85
2022/07/23 09:05:58;;;;;;;;;;;;;;;28.91;34.09;95517.19;5063999;28;20105;-85
2022/07/23 09:08:25;;;;;;;15.77;8.40;;;;;;;28.82;34.04;95484.78;5062682;28;19920;-85
2022/07/23 09:10:58;;;;;;;24.25;7.97;;;;;;;29.01;33.90;95510.97;5081335;28;20517;-85
2022/07/23 09:13:53;;;;;;;18.20;7.72;;;;;;;29.13;33.76;95505.19;5064038;28;20040;-86
2022/07/23 09:16:24;;;;;;;21.40;8.27;;;;;;;29.08;33.95;95508.25;5060201;28;20164;-86
2022/07/23 09:18:56;;;;;;;13.82;7.68;;;;;;;29.28;33.41;95511.47;5081487;28;20064;-85
2022/07/23 09:21:22;;;;;;;17.52;7.25;;;;;;;29.37;33.14;95509.19;5062406;28;20040;-85
2022/07/23 09:23:57;;;;;;;21.83;7.50;;;;;;;29.34;32.18;95507.19;5062208;28;20428;-86
2022/07/23 09:26:33;;;;;;;19.95;7.47;;;;;;;29.48;32.19;95515.47;5062929;28;20109;-86
2022/07/23 09:29:00;;;;;;;16.83;7.63;;;;;;;29.58;32.08;95505.72;5062584;28;20055;-86
2022/07/23 09:31:31;;;;;;;16.00;8.00;;;;;;;29.64;32.02;95509.63;5062841;28;20072;-86
2022/07/23 09:34:15;;;;;;;15.48;7.03;;;;;;;29.55;32.21;95488.94;5062544;28;20719;-85
2022/07/23 09:36:41;;;;;;;24.38;7.40;;;;;;;29.45;32.59;95456.09;5080551;28;20040;-85
2022/07/23 09:39:08;;;;;;;18.08;6.82;;;;;;;29.23;30.73;95422.47;5074695;28;20056;-86
2022/07/23 09:41:39;;;;;;;14.13;6.78;;;;;;;29.76;30.57;95493.63;5062127;28;20032;-85
2022/07/23 09:44:10;;;;;;;14.00;7.45;;;;;;;29.13;30.71;95388.53;5062666;28;20031;-85
2022/07/23 09:46:36;;;;;;;15.43;7.57;;;;;;;29.54;29.17;95440.13;5080923;28;20469;-84
2022/07/23 09:49:11;;;;;;;19.67;7.03;;;;;;;29.48;29.13;95411.63;5063026;28;20056;-85
2022/07/23 09:51:57;;;;;;;17.05;6.70;;;;;;;30.19;28.94;95480.81;5062799;28;20042;-85
2022/07/23 09:54:30;;;;;;;23.88;6.93;;;;;;;30.75;27.79;95481.88;5063433;28;20504;-85
2022/07/23 09:56:56;;;;;;;21.65;6.97;;;;;;;30.74;27.17;95370.84;5066413;28;20036;-84
2022/07/23 09:59:28;;;;;;;17.95;6.30;;;;;;;31.74;24.76;95388.22;5065765;28;20051;-85
2022/07/23 10:01:56;;;;;;;17.67;6.13;;;;;;;33.09;23.87;95417.03;5066472;28;20563;-86
2022/07/23 10:04:23;;;;;;;13.85;5.47;;;;;;;33.93;22.09;95413.47;5065959;28;20043;-86
2022/07/23 10:06:56;;;;;;;23.33;5.97;;;;;;;34.81;22.25;95397.31;5065323;28;20040;-85
2022/07/23 10:09:27;;;;;;;15.43;6.35;;;;;;;36.02;20.64;95461.63;5084393;28;20027;-84
2022/07/23 10:11:59;;;;;;;13.70;5.45;;;;;;;36.88;19.49;95457.47;5064962;28;20027;-85
2022/07/23 10:14:25;;;;;;;20.05;5.68;;;;;;;37.19;18.89;95392.22;5064965;28;20028;-86
2022/07/23 10:16:51;;;;;;;13.98;5.32;;;;;;;37.88;18.67;95411.03;5065756;28;20040;-86
2022/07/23 10:19:18;;;;;;;17.58;5.55;;;;;;;37.46;18.30;95389.78;5065418;28;20047;-85
2022/07/23 10:22:12;;;;;;;12.77;5.63;;;;;;;38.04;17.40;95455.22;5083912;28;20232;-86
2022/07/23 10:24:46;;;;;;;10.00;5.05;;;;;;;38.32;17.41;95447.97;5056693;28;20040;-86
2022/07/23 10:27:31;;;;;;;16.92;5.38;;;;;;;38.88;16.62;95443.25;5066003;28;20055;-86
2022/07/23 10:30:11;;;;;;;11.13;6.13;;;;;;;39.03;16.99;95432.44;5064788;28;20043;-86
2022/07/23 10:33:11;;;;;;;12.35;5.38;;;;;;;39.12;16.57;95404.78;5083030;28;20586;-86
2022/07/23 10:35:43;;;;;;;9.23;5.10;;;;;;;39.79;15.79;95442.25;5064639;28;20032;-86
2022/07/23 10:38:21;;;;;;;17.95;5.97;;;;;;;40.03;15.75;95437.72;5064514;28;20123;-85
2022/07/23 10:41:05;;;;;;;13.88;5.35;;;;;;;40.15;15.45;95428.47;5065579;28;20131;-86
2022/07/23 10:43:31;;;;;;;14.57;5.43;;;;;;;40.06;15.90;95373.69;5063074;28;20032;-86
2022/07/23 10:49:35;;;;;;;14.13;5.57;;;;;;;40.72;15.25;95417.78;5082954;28;20040;-85
2022/07/23 10:52:20;;;;;;;14.80;5.75;;;;;;;40.18;15.54;95419.22;5026903;28;20556;-85
2022/07/23 10:54:49;;;;;;;17.30;5.47;;;;;;;39.33;15.25;95405.94;5064461;28;20057;-86
2022/07/23 10:57:16;;;;;;;16.88;5.65;;;;;;;39.19;15.34;95370.44;5083407;28;20487;-86
2022/07/23 11:00:11;;;;;;;17.23;4.95;;;;;;;39.43;15.07;95404.78;5083165;28;20516;-86
2022/07/23 11:02:38;;;;;;;17.48;5.88;;;;;;;39.49;15.17;95350.25;5063778;28;20537;-85
2022/07/23 11:05:15;;;;;;;15.57;5.60;;;;;;;39.71;14.30;95406.44;5082924;28;20032;-85
2022/07/23 11:08:07;;;;;;;14.60;4.88;;;;;;;39.96;14.37;95394.34;5064682;28;20301;-86
2022/07/23 11:10:35;;;;;;;11.25;4.72;;;;;;;39.20;13.75;95345.03;5063919;28;20028;-85
2022/07/23 11:13:22;;;;;;;17.38;5.65;;;;;;;39.47;13.06;95394.31;5083268;28;20090;-86
2022/07/23 11:16:08;;;;;;;19.90;5.47;;;;;;;38.98;14.00;95347.84;5064188;28;20028;-86
2022/07/23 11:18:39;;;;;;;16.67;5.28;;;;;;;39.75;14.42;95387.63;5064607;28;20036;-86
2022/07/23 11:21:20;;;;;;;23.40;5.82;;;;;;;40.13;13.47;95386.50;5064771;28;20127;-86
2022/07/23 11:24:19;;;;;;;16.85;4.95;;;;;;;39.77;12.14;95383.63;5061765;28;20032;-86
2022/07/23 11:26:52;;;;;;;18.08;5.07;;;;;;;39.74;12.47;95352.00;5043290;28;20048;-86
2022/07/23 11:29:37;;;;;;;18.42;5.13;;;;;;;40.21;12.16;95371.06;5084923;28;20036;-86